Tonsina, Alaska
Current Conditions -  °F | °C
As of 2:53 AM on Friday 21 Nov 2014 (Local Time) from PAGK Reporting Station
Clear Clear  
Wind Chill:   Ceiling: Unl
Heat Index:   Visibility: 10mi
Dew Point: -5°   Wind: 0mph
Humidity: 75%   Direction: NA
Pressure: 29.24"   Gusts: NA
Location:  61.66°N, 145.18°W
Report Text: PAGK 211153Z AUTO 00000KT 10SM CLR M17/M21 A2924 RMK AO2 SLP956 T11721206 11167 21183 58021 TSNO $
Loading
Personal Weather Stations






























Interactive Weather Map New forecast layout! Learn more

10-Day Weather Forecast

Advertisements
Track Severe Weather on mobile